createdAt,value
2022-12-27T00:00:32.044Z,997.220829024
2022-12-27T00:01:31.841Z,997.220829024
2022-12-27T00:02:31.959Z,997.11923766
2022-12-27T00:03:31.844Z,997.11923766
2022-12-27T00:04:31.819Z,997.220829024
2022-12-27T00:05:31.821Z,997.0176462960001
2022-12-27T00:06:31.823Z,997.0176462960001
2022-12-27T00:07:31.828Z,997.220829024
2022-12-27T00:08:31.824Z,997.0176462960001
2022-12-27T00:09:31.790Z,997.220829024
2022-12-27T00:10:31.842Z,997.11923766
2022-12-27T00:11:31.818Z,997.0176462960001
2022-12-27T00:12:31.818Z,996.916054932
2022-12-27T00:13:31.808Z,997.0176462960001
2022-12-27T00:14:31.835Z,997.0176462960001
2022-12-27T00:15:31.817Z,997.0176462960001
2022-12-27T00:16:32.888Z,997.220829024
2022-12-27T00:17:31.824Z,997.0176462960001
2022-12-27T00:18:31.789Z,997.0176462960001
2022-12-27T00:19:31.850Z,997.0176462960001
2022-12-27T00:20:31.812Z,997.0176462960001
2022-12-27T00:21:31.824Z,997.220829024
2022-12-27T00:22:31.813Z,996.916054932
2022-12-27T00:23:31.844Z,997.0176462960001
2022-12-27T00:24:31.829Z,997.0176462960001
2022-12-27T00:25:31.829Z,997.0176462960001
2022-12-27T00:26:31.820Z,997.11923766
2022-12-27T00:27:31.851Z,996.916054932
2022-12-27T00:28:31.804Z,996.814463568
2022-12-27T00:29:31.893Z,996.7128722040001
2022-12-27T00:30:31.802Z,996.814463568
2022-12-27T00:31:31.885Z,996.814463568
2022-12-27T00:32:31.822Z,996.916054932
2022-12-27T00:33:31.814Z,996.916054932
2022-12-27T00:34:31.808Z,997.0176462960001
2022-12-27T00:35:31.876Z,997.0176462960001
2022-12-27T00:36:31.819Z,996.814463568
2022-12-27T00:37:31.827Z,996.916054932
2022-12-27T00:38:31.812Z,996.814463568
2022-12-27T00:39:31.829Z,996.814463568
2022-12-27T00:40:31.807Z,996.61128084
2022-12-27T00:41:31.813Z,996.916054932
2022-12-27T00:42:31.830Z,996.7128722040001
2022-12-27T00:43:31.847Z,996.814463568
2022-12-27T00:44:31.870Z,996.61128084
2022-12-27T00:45:33.103Z,996.916054932
2022-12-27T00:46:31.860Z,996.814463568
2022-12-27T00:47:31.825Z,996.916054932
2022-12-27T00:48:31.800Z,996.814463568
2022-12-27T00:49:31.805Z,996.509689476
2022-12-27T00:50:31.816Z,996.7128722040001
2022-12-27T00:51:31.829Z,996.7128722040001
2022-12-27T00:52:31.782Z,996.7128722040001
2022-12-27T00:53:31.821Z,996.61128084
2022-12-27T00:54:31.846Z,996.814463568
2022-12-27T00:55:31.845Z,996.61128084
2022-12-27T00:56:31.834Z,996.61128084
2022-12-27T00:57:31.815Z,996.61128084
2022-12-27T00:58:31.825Z,996.4080981120001
2022-12-27T00:59:31.831Z,996.61128084
2022-12-27T01:00:31.805Z,996.4080981120001
2022-12-27T01:01:31.893Z,996.509689476
2022-12-27T01:02:31.787Z,996.509689476
2022-12-27T01:03:31.927Z,996.509689476
2022-12-27T01:04:31.805Z,996.4080981120001
2022-12-27T01:05:31.836Z,996.4080981120001
2022-12-27T01:06:31.831Z,996.4080981120001
2022-12-27T01:07:31.815Z,996.509689476
2022-12-27T01:08:31.840Z,996.61128084
2022-12-27T01:09:31.858Z,996.4080981120001
2022-12-27T01:10:31.793Z,996.509689476
2022-12-27T01:11:31.817Z,996.306506748
2022-12-27T01:12:31.797Z,996.509689476
2022-12-27T01:13:31.805Z,996.509689476
2022-12-27T01:14:31.769Z,996.306506748
2022-12-27T01:15:31.828Z,996.509689476
2022-12-27T01:16:31.910Z,996.509689476
2022-12-27T01:17:31.834Z,996.4080981120001
2022-12-27T01:18:31.867Z,996.509689476
2022-12-27T01:19:31.823Z,996.306506748
2022-12-27T01:20:31.843Z,996.61128084
2022-12-27T01:21:31.810Z,996.4080981120001
2022-12-27T01:22:31.808Z,996.306506748
2022-12-27T01:23:31.827Z,996.306506748
2022-12-27T01:24:31.839Z,996.4080981120001
2022-12-27T01:25:31.791Z,996.306506748
2022-12-27T01:26:31.807Z,996.306506748
2022-12-27T01:27:31.803Z,996.509689476
2022-12-27T01:28:31.851Z,996.4080981120001
2022-12-27T01:29:31.798Z,996.306506748
2022-12-27T01:30:31.810Z,996.4080981120001
2022-12-27T01:31:31.994Z,996.509689476
2022-12-27T01:32:31.836Z,996.306506748
2022-12-27T01:33:31.787Z,996.4080981120001
2022-12-27T01:34:31.823Z,996.238779172
2022-12-27T01:35:31.877Z,996.137187808
2022-12-27T01:36:31.807Z,996.306506748
2022-12-27T01:37:31.809Z,996.238779172
2022-12-27T01:38:31.819Z,996.238779172
2022-12-27T01:39:31.817Z,996.306506748
2022-12-27T01:40:31.945Z,996.4080981120001
2022-12-27T01:41:31.990Z,996.306506748
2022-12-27T01:42:32.003Z,996.306506748
2022-12-27T01:43:31.914Z,996.238779172
2022-12-27T01:44:31.974Z,996.238779172
2022-12-27T01:45:31.935Z,996.306506748
2022-12-27T01:46:31.905Z,996.306506748
2022-12-27T01:47:32.000Z,996.238779172
2022-12-27T01:48:31.986Z,996.238779172
2022-12-27T01:49:31.945Z,996.238779172
2022-12-27T01:50:31.979Z,996.238779172
2022-12-27T01:51:31.979Z,996.238779172
2022-12-27T01:52:34.950Z,996.137187808
2022-12-27T01:53:31.773Z,996.306506748
2022-12-27T01:54:31.817Z,996.035596444
2022-12-27T01:55:31.798Z,996.137187808
2022-12-27T01:56:31.825Z,996.306506748
2022-12-27T01:57:31.794Z,996.137187808
2022-12-27T01:58:31.798Z,996.035596444
2022-12-27T01:59:31.790Z,996.035596444
2022-12-27T02:00:31.892Z,996.137187808
2022-12-27T02:01:31.998Z,995.93400508
2022-12-27T02:02:31.893Z,996.238779172
2022-12-27T02:03:31.808Z,995.93400508
2022-12-27T02:04:31.825Z,995.93400508
2022-12-27T02:05:31.777Z,996.137187808
2022-12-27T02:06:31.808Z,996.035596444
2022-12-27T02:07:31.804Z,996.035596444
2022-12-27T02:08:31.798Z,996.137187808
2022-12-27T02:09:31.806Z,996.137187808
2022-12-27T02:10:31.829Z,996.137187808
2022-12-27T02:11:31.785Z,996.137187808
2022-12-27T02:12:31.845Z,996.137187808
2022-12-27T02:13:31.824Z,996.137187808
2022-12-27T02:14:31.844Z,996.035596444
2022-12-27T02:15:31.821Z,996.035596444
2022-12-27T02:16:31.843Z,996.137187808
2022-12-27T02:17:31.803Z,996.035596444
2022-12-27T02:18:31.799Z,995.93400508
2022-12-27T02:19:31.807Z,996.137187808
2022-12-27T02:20:31.845Z,996.035596444
2022-12-27T02:21:31.796Z,996.238779172
2022-12-27T02:22:31.813Z,996.035596444
2022-12-27T02:23:37.698Z,995.93400508
2022-12-27T02:24:31.827Z,996.035596444
2022-12-27T02:25:31.866Z,995.6292309879999
2022-12-27T02:26:31.798Z,996.137187808
2022-12-27T02:27:31.815Z,995.93400508
2022-12-27T02:28:31.815Z,995.93400508
2022-12-27T02:29:31.813Z,995.832413716
2022-12-27T02:30:31.940Z,995.93400508
2022-12-27T02:31:31.779Z,995.832413716
2022-12-27T02:32:31.804Z,995.93400508
2022-12-27T02:33:31.790Z,995.93400508
2022-12-27T02:34:31.823Z,996.035596444
2022-12-27T02:35:31.785Z,996.137187808
2022-12-27T02:36:31.804Z,996.137187808
2022-12-27T02:37:31.821Z,995.832413716
2022-12-27T02:38:31.797Z,995.832413716
2022-12-27T02:39:31.784Z,995.93400508
2022-12-27T02:40:31.817Z,995.832413716
2022-12-27T02:41:31.805Z,995.93400508
2022-12-27T02:42:31.795Z,995.93400508
2022-12-27T02:43:31.820Z,995.832413716
2022-12-27T02:44:31.798Z,996.137187808
2022-12-27T02:45:31.812Z,995.93400508
2022-12-27T02:46:31.855Z,995.93400508
2022-12-27T02:47:31.926Z,995.93400508
2022-12-27T02:48:31.837Z,996.035596444
2022-12-27T02:49:31.811Z,995.93400508
2022-12-27T02:50:31.805Z,995.93400508
2022-12-27T02:51:31.785Z,995.832413716
2022-12-27T02:52:31.868Z,995.6292309879999
2022-12-27T02:53:31.782Z,996.035596444
2022-12-27T02:54:31.805Z,995.93400508
2022-12-27T02:55:31.799Z,995.6292309879999
2022-12-27T02:56:31.827Z,995.93400508
2022-12-27T02:57:31.801Z,995.832413716
2022-12-27T02:58:31.809Z,995.93400508
2022-12-27T02:59:31.777Z,995.93400508
2022-12-27T03:00:31.855Z,995.832413716
2022-12-27T03:01:32.131Z,995.93400508
2022-12-27T03:02:31.851Z,995.93400508
2022-12-27T03:03:31.781Z,995.93400508
2022-12-27T03:04:31.801Z,996.035596444
2022-12-27T03:05:31.801Z,995.93400508
2022-12-27T03:06:31.765Z,995.832413716
2022-12-27T03:07:31.788Z,995.93400508
2022-12-27T03:08:31.848Z,995.93400508
2022-12-27T03:09:31.848Z,995.832413716
2022-12-27T03:10:31.870Z,996.035596444
2022-12-27T03:11:31.958Z,996.035596444
2022-12-27T03:12:31.809Z,995.93400508
2022-12-27T03:13:31.829Z,995.832413716
2022-12-27T03:14:31.927Z,995.832413716
2022-12-27T03:15:33.467Z,995.93400508
2022-12-27T03:16:31.957Z,995.6292309879999
2022-12-27T03:17:31.896Z,995.93400508
2022-12-27T03:18:31.874Z,995.7308223519999
2022-12-27T03:19:31.929Z,995.832413716
2022-12-27T03:20:31.900Z,995.93400508
2022-12-27T03:21:31.941Z,995.93400508
2022-12-27T03:22:31.888Z,995.93400508
2022-12-27T03:23:31.984Z,995.7308223519999
2022-12-27T03:24:31.840Z,995.832413716
2022-12-27T03:25:31.807Z,995.832413716
2022-12-27T03:26:31.906Z,995.832413716
2022-12-27T03:27:31.889Z,995.7308223519999
2022-12-27T03:28:31.947Z,995.832413716
2022-12-27T03:29:31.985Z,995.7308223519999
2022-12-27T03:30:31.916Z,995.93400508
2022-12-27T03:31:31.946Z,995.832413716
2022-12-27T03:32:31.793Z,995.832413716
2022-12-27T03:33:31.898Z,995.93400508
2022-12-27T03:34:31.914Z,995.93400508
2022-12-27T03:35:31.851Z,996.035596444
2022-12-27T03:36:31.790Z,995.7308223519999
2022-12-27T03:37:31.949Z,995.832413716
2022-12-27T03:38:31.875Z,995.7308223519999
2022-12-27T03:39:31.959Z,996.035596444
2022-12-27T03:40:31.815Z,995.832413716
2022-12-27T03:41:31.898Z,995.832413716
2022-12-27T03:42:31.838Z,995.93400508
2022-12-27T03:43:31.902Z,995.93400508
2022-12-27T03:44:31.798Z,995.832413716
2022-12-27T03:45:31.806Z,995.93400508
2022-12-27T03:46:32.002Z,995.93400508
2022-12-27T03:47:31.818Z,996.035596444
2022-12-27T03:48:31.779Z,996.035596444
2022-12-27T03:49:31.799Z,996.238779172
2022-12-27T03:50:31.807Z,996.137187808
2022-12-27T03:51:31.893Z,995.93400508
2022-12-27T03:52:31.775Z,995.93400508
2022-12-27T03:53:31.806Z,996.137187808
2022-12-27T03:54:31.775Z,996.035596444
2022-12-27T03:55:33.499Z,996.035596444
2022-12-27T03:56:31.776Z,996.035596444
2022-12-27T03:57:31.804Z,996.137187808
2022-12-27T03:58:31.765Z,995.93400508
2022-12-27T03:59:31.815Z,995.93400508
2022-12-27T04:00:31.812Z,996.137187808
2022-12-27T04:01:31.852Z,995.832413716
2022-12-27T04:02:31.985Z,996.137187808
2022-12-27T04:03:31.834Z,995.93400508
2022-12-27T04:04:31.930Z,996.137187808
2022-12-27T04:05:31.804Z,996.306506748
2022-12-27T04:06:31.781Z,995.93400508
2022-12-27T04:07:31.804Z,995.93400508
2022-12-27T04:08:31.794Z,995.93400508
2022-12-27T04:09:31.810Z,995.93400508
2022-12-27T04:10:31.908Z,995.93400508
2022-12-27T04:11:31.817Z,995.93400508
2022-12-27T04:12:31.782Z,995.832413716
2022-12-27T04:13:31.788Z,995.93400508
2022-12-27T04:14:31.786Z,995.832413716
2022-12-27T04:15:31.806Z,995.832413716
2022-12-27T04:16:31.835Z,995.93400508
2022-12-27T04:17:31.800Z,995.832413716
2022-12-27T04:18:31.837Z,995.832413716
2022-12-27T04:19:31.842Z,996.035596444
2022-12-27T04:20:31.833Z,995.93400508
2022-12-27T04:21:31.810Z,996.035596444
2022-12-27T04:22:31.787Z,995.93400508
2022-12-27T04:23:31.785Z,995.93400508
2022-12-27T04:24:31.828Z,995.832413716
2022-12-27T04:25:31.791Z,996.035596444
2022-12-27T04:26:31.790Z,995.93400508
2022-12-27T04:27:31.772Z,995.7308223519999
2022-12-27T04:28:31.818Z,996.035596444
2022-12-27T04:29:31.803Z,996.035596444
2022-12-27T04:30:31.803Z,996.035596444
2022-12-27T04:31:31.926Z,996.137187808
2022-12-27T04:32:31.799Z,996.137187808
2022-12-27T04:33:31.785Z,995.93400508
2022-12-27T04:34:31.782Z,996.035596444
2022-12-27T04:35:31.784Z,995.93400508
2022-12-27T04:36:31.815Z,996.035596444
2022-12-27T04:37:31.780Z,996.137187808
2022-12-27T04:38:31.805Z,995.93400508
2022-12-27T04:39:31.765Z,996.035596444
2022-12-27T04:40:31.814Z,996.238779172
2022-12-27T04:41:31.797Z,996.035596444
2022-12-27T04:42:31.803Z,995.832413716
2022-12-27T04:43:31.791Z,996.137187808
2022-12-27T04:44:31.776Z,995.93400508
2022-12-27T04:45:31.798Z,995.93400508
2022-12-27T04:46:31.861Z,996.035596444
2022-12-27T04:47:31.825Z,995.93400508
2022-12-27T04:48:31.811Z,996.035596444
2022-12-27T04:49:31.767Z,996.238779172
2022-12-27T04:50:31.810Z,996.035596444
2022-12-27T04:51:31.767Z,995.93400508
2022-12-27T04:52:31.783Z,996.137187808
2022-12-27T04:53:31.793Z,996.035596444
2022-12-27T04:54:31.774Z,996.035596444
2022-12-27T04:55:31.779Z,996.035596444
2022-12-27T04:56:31.815Z,996.137187808
2022-12-27T04:57:31.769Z,996.035596444
2022-12-27T04:58:31.812Z,996.035596444
2022-12-27T04:59:31.759Z,996.035596444
2022-12-27T05:00:31.801Z,996.035596444
2022-12-27T05:01:31.899Z,996.238779172
2022-12-27T05:02:31.970Z,996.035596444
2022-12-27T05:03:31.796Z,996.238779172
2022-12-27T05:04:31.795Z,996.035596444
2022-12-27T05:05:31.821Z,995.93400508
2022-12-27T05:06:31.791Z,995.93400508
2022-12-27T05:07:31.791Z,996.137187808
2022-12-27T05:08:31.799Z,995.93400508
2022-12-27T05:09:31.787Z,996.035596444
2022-12-27T05:10:31.766Z,995.93400508
2022-12-27T05:11:31.763Z,996.238779172
2022-12-27T05:12:31.778Z,996.035596444
2022-12-27T05:13:31.782Z,996.035596444
2022-12-27T05:14:31.790Z,996.137187808
2022-12-27T05:15:31.800Z,996.035596444
2022-12-27T05:16:31.867Z,996.137187808
2022-12-27T05:17:31.783Z,996.035596444
2022-12-27T05:18:31.771Z,996.035596444
2022-12-27T05:19:31.801Z,995.93400508
2022-12-27T05:20:31.751Z,995.832413716
2022-12-27T05:21:31.764Z,995.93400508
2022-12-27T05:22:31.803Z,996.035596444
2022-12-27T05:23:31.902Z,996.137187808
2022-12-27T05:24:31.796Z,996.238779172
2022-12-27T05:25:31.767Z,996.137187808
2022-12-27T05:26:31.806Z,996.137187808
2022-12-27T05:27:31.787Z,996.306506748
2022-12-27T05:28:31.756Z,996.035596444
2022-12-27T05:29:31.761Z,996.137187808
2022-12-27T05:30:31.787Z,996.035596444
2022-12-27T05:31:31.898Z,996.137187808
2022-12-27T05:32:31.774Z,995.93400508
2022-12-27T05:33:31.805Z,996.035596444
2022-12-27T05:34:31.782Z,995.93400508
2022-12-27T05:35:31.787Z,996.137187808
2022-12-27T05:36:31.782Z,996.035596444
2022-12-27T05:37:31.760Z,995.832413716
2022-12-27T05:38:31.821Z,995.93400508
2022-12-27T05:39:32.004Z,996.306506748
2022-12-27T05:40:31.782Z,996.238779172
2022-12-27T05:41:31.788Z,996.035596444
2022-12-27T05:42:31.786Z,996.035596444
2022-12-27T05:43:31.822Z,996.306506748
2022-12-27T05:44:31.766Z,995.832413716
2022-12-27T05:45:31.801Z,996.137187808
2022-12-27T05:46:31.864Z,996.035596444
2022-12-27T05:47:31.771Z,996.035596444
2022-12-27T05:48:31.764Z,996.137187808
2022-12-27T05:49:31.771Z,996.137187808
2022-12-27T05:50:31.812Z,995.93400508
2022-12-27T05:51:31.803Z,996.137187808
2022-12-27T05:52:36.174Z,996.137187808
2022-12-27T05:53:31.767Z,996.137187808
2022-12-27T05:54:31.818Z,996.306506748
2022-12-27T05:55:32.419Z,996.238779172
2022-12-27T05:56:31.805Z,996.306506748
2022-12-27T05:57:31.795Z,996.238779172
2022-12-27T05:58:31.800Z,996.238779172
2022-12-27T05:59:31.784Z,996.238779172
2022-12-27T06:00:31.811Z,996.238779172
2022-12-27T06:01:31.879Z,996.306506748
2022-12-27T06:02:32.034Z,996.137187808
2022-12-27T06:03:31.914Z,996.137187808
2022-12-27T06:04:31.805Z,996.238779172
2022-12-27T06:05:31.816Z,996.306506748
2022-12-27T06:06:31.801Z,996.306506748
2022-12-27T06:07:31.791Z,996.306506748
2022-12-27T06:08:31.784Z,996.306506748
2022-12-27T06:09:31.774Z,996.238779172
2022-12-27T06:10:31.794Z,996.238779172
2022-12-27T06:11:31.802Z,996.035596444
2022-12-27T06:12:31.791Z,996.238779172
2022-12-27T06:13:31.782Z,996.035596444
2022-12-27T06:14:31.811Z,996.306506748
2022-12-27T06:15:31.796Z,996.238779172
2022-12-27T06:16:31.845Z,996.035596444
2022-12-27T06:17:31.766Z,996.306506748
2022-12-27T06:18:31.732Z,996.306506748
2022-12-27T06:19:31.790Z,996.306506748
2022-12-27T06:20:31.819Z,996.238779172
2022-12-27T06:21:31.832Z,996.306506748
2022-12-27T06:22:31.805Z,996.306506748
2022-12-27T06:23:31.797Z,996.306506748
2022-12-27T06:24:31.754Z,996.238779172
2022-12-27T06:25:31.776Z,996.306506748
2022-12-27T06:26:31.754Z,996.137187808
2022-12-27T06:27:31.770Z,996.238779172
2022-12-27T06:28:31.761Z,996.238779172
2022-12-27T06:29:31.835Z,996.4080981120001
2022-12-27T06:30:36.076Z,996.238779172
2022-12-27T06:31:32.004Z,996.238779172
2022-12-27T06:32:31.802Z,996.137187808
2022-12-27T06:33:31.829Z,996.509689476
2022-12-27T06:34:31.793Z,996.306506748
2022-12-27T06:35:31.800Z,996.306506748
2022-12-27T06:36:31.748Z,996.509689476
2022-12-27T06:37:31.776Z,996.4080981120001
2022-12-27T06:38:31.781Z,996.509689476
2022-12-27T06:39:31.799Z,996.509689476
2022-12-27T06:40:31.842Z,996.4080981120001
2022-12-27T06:41:31.800Z,996.306506748
2022-12-27T06:42:31.746Z,996.509689476
2022-12-27T06:43:31.774Z,996.4080981120001
2022-12-27T06:44:31.767Z,996.306506748
2022-12-27T06:45:31.876Z,996.306506748
2022-12-27T06:46:31.743Z,996.509689476
2022-12-27T06:47:31.756Z,996.4080981120001
2022-12-27T06:48:31.839Z,996.509689476
2022-12-27T06:49:31.811Z,996.509689476
2022-12-27T06:50:31.794Z,996.4080981120001
2022-12-27T06:51:31.781Z,996.4080981120001
2022-12-27T06:52:31.773Z,996.61128084
2022-12-27T06:53:31.778Z,996.814463568
2022-12-27T06:54:31.777Z,996.306506748
2022-12-27T06:55:31.792Z,996.306506748
2022-12-27T06:56:31.821Z,996.61128084
2022-12-27T06:57:31.811Z,996.306506748
2022-12-27T06:58:31.767Z,996.4080981120001
2022-12-27T06:59:31.791Z,996.509689476
2022-12-27T07:00:31.790Z,996.61128084
2022-12-27T07:01:31.982Z,996.4080981120001
2022-12-27T07:02:32.139Z,996.61128084
2022-12-27T07:03:31.755Z,996.4080981120001
2022-12-27T07:04:31.773Z,996.509689476
2022-12-27T07:05:31.795Z,996.4080981120001
2022-12-27T07:06:31.766Z,996.61128084
2022-12-27T07:07:31.791Z,996.4080981120001
2022-12-27T07:08:31.755Z,996.61128084
2022-12-27T07:09:31.804Z,996.306506748
2022-12-27T07:10:31.782Z,996.509689476
2022-12-27T07:11:31.787Z,996.7128722040001
2022-12-27T07:12:36.462Z,996.61128084
2022-12-27T07:13:31.795Z,996.7128722040001
2022-12-27T07:14:31.783Z,996.7128722040001
2022-12-27T07:15:31.805Z,996.814463568
2022-12-27T07:16:31.889Z,996.916054932
2022-12-27T07:17:31.811Z,996.7128722040001
2022-12-27T07:18:31.758Z,996.814463568
2022-12-27T07:19:31.786Z,996.814463568
2022-12-27T07:20:31.772Z,996.916054932
2022-12-27T07:21:31.843Z,996.7128722040001
2022-12-27T07:22:31.775Z,996.814463568
2022-12-27T07:23:31.760Z,996.7128722040001
2022-12-27T07:24:31.774Z,996.814463568
2022-12-27T07:25:31.763Z,996.814463568
2022-12-27T07:26:31.792Z,996.814463568
2022-12-27T07:27:31.762Z,996.7128722040001
2022-12-27T07:28:31.771Z,996.7128722040001
2022-12-27T07:29:31.833Z,996.814463568
2022-12-27T07:30:31.782Z,996.916054932
2022-12-27T07:31:31.851Z,996.814463568
2022-12-27T07:32:31.773Z,996.916054932
2022-12-27T07:33:31.790Z,996.916054932
2022-12-27T07:34:31.797Z,996.7128722040001
2022-12-27T07:35:31.798Z,997.11923766
2022-12-27T07:36:31.775Z,997.0176462960001
2022-12-27T07:37:31.742Z,997.220829024
2022-12-27T07:38:31.804Z,997.220829024
2022-12-27T07:39:31.863Z,997.220829024
2022-12-27T07:40:31.755Z,997.220829024
2022-12-27T07:41:31.748Z,997.11923766
2022-12-27T07:42:31.808Z,996.916054932
2022-12-27T07:43:31.792Z,997.220829024
2022-12-27T07:44:31.752Z,997.220829024
2022-12-27T07:45:31.848Z,997.0176462960001
2022-12-27T07:46:31.839Z,996.814463568
2022-12-27T07:47:31.785Z,997.220829024
2022-12-27T07:48:31.751Z,997.0176462960001
2022-12-27T07:49:31.815Z,997.3224203880001
2022-12-27T07:50:31.785Z,997.11923766
2022-12-27T07:51:31.750Z,997.0176462960001
2022-12-27T07:52:31.783Z,997.220829024
2022-12-27T07:53:31.751Z,997.11923766
2022-12-27T07:54:31.790Z,997.3224203880001
2022-12-27T07:55:31.777Z,997.11923766
2022-12-27T07:56:31.743Z,997.11923766
2022-12-27T07:57:31.755Z,997.220829024
2022-12-27T07:58:31.756Z,997.11923766
2022-12-27T07:59:31.762Z,997.220829024
2022-12-27T08:00:31.806Z,997.11923766
2022-12-27T08:01:31.909Z,997.11923766
2022-12-27T08:02:31.822Z,997.11923766
2022-12-27T08:03:31.849Z,997.220829024
2022-12-27T08:04:31.782Z,997.0176462960001
2022-12-27T08:05:31.772Z,997.11923766
2022-12-27T08:06:31.794Z,997.0176462960001
2022-12-27T08:07:31.757Z,997.0176462960001
2022-12-27T08:08:31.770Z,997.0176462960001
2022-12-27T08:09:31.757Z,997.11923766
2022-12-27T08:10:31.787Z,996.7128722040001
2022-12-27T08:11:31.837Z,997.0176462960001
2022-12-27T08:12:31.743Z,997.0176462960001
2022-12-27T08:13:31.796Z,997.0176462960001
2022-12-27T08:14:31.779Z,997.0176462960001
2022-12-27T08:15:31.815Z,996.916054932
2022-12-27T08:16:31.814Z,997.11923766
2022-12-27T08:17:31.787Z,996.814463568
2022-12-27T08:18:31.759Z,997.11923766
2022-12-27T08:19:31.786Z,997.0176462960001
2022-12-27T08:20:31.763Z,997.11923766
2022-12-27T08:21:31.798Z,997.11923766
2022-12-27T08:22:31.761Z,997.11923766
2022-12-27T08:23:31.740Z,996.916054932
2022-12-27T08:24:31.816Z,996.916054932
2022-12-27T08:25:31.769Z,996.916054932
2022-12-27T08:26:31.770Z,996.814463568
2022-12-27T08:27:31.793Z,997.11923766
2022-12-27T08:28:31.770Z,996.916054932
2022-12-27T08:29:31.814Z,997.11923766
2022-12-27T08:30:31.841Z,997.0176462960001
2022-12-27T08:31:31.751Z,997.220829024
2022-12-27T08:32:31.823Z,997.11923766
2022-12-27T08:33:31.773Z,997.11923766
2022-12-27T08:34:31.760Z,997.11923766
2022-12-27T08:35:52.111Z,997.0176462960001
2022-12-27T08:36:55.681Z,996.916054932
2022-12-27T08:37:31.841Z,997.220829024
2022-12-27T08:38:31.766Z,997.220829024
2022-12-27T08:39:31.767Z,997.11923766
2022-12-27T08:40:31.763Z,997.11923766
2022-12-27T08:41:31.792Z,997.220829024
2022-12-27T08:42:31.769Z,996.916054932
2022-12-27T08:43:31.758Z,997.11923766
2022-12-27T08:44:31.758Z,997.0176462960001
2022-12-27T08:45:31.806Z,997.11923766
2022-12-27T08:46:31.789Z,996.916054932
2022-12-27T08:47:31.784Z,997.11923766
2022-12-27T08:48:31.818Z,996.916054932
2022-12-27T08:49:31.784Z,997.0176462960001
2022-12-27T08:50:31.776Z,997.0176462960001
2022-12-27T08:51:40.385Z,997.11923766
2022-12-27T08:52:31.784Z,997.0176462960001
2022-12-27T08:53:31.781Z,997.11923766
2022-12-27T08:54:31.728Z,996.916054932
2022-12-27T08:55:31.789Z,997.0176462960001
2022-12-27T08:56:31.746Z,997.220829024
2022-12-27T08:57:31.772Z,997.0176462960001
2022-12-27T08:58:31.754Z,997.11923766
2022-12-27T08:59:31.763Z,997.220829024
2022-12-27T09:00:31.795Z,997.220829024
2022-12-27T09:01:31.912Z,997.0176462960001
2022-12-27T09:02:32.014Z,997.3224203880001
2022-12-27T09:03:31.804Z,997.220829024
2022-12-27T09:04:31.943Z,997.220829024
2022-12-27T09:05:36.605Z,997.11923766
2022-12-27T09:06:31.763Z,997.0176462960001
2022-12-27T09:07:31.808Z,997.220829024
2022-12-27T09:08:31.755Z,997.3224203880001
2022-12-27T09:09:31.808Z,997.220829024
2022-12-27T09:10:31.740Z,997.11923766
2022-12-27T09:11:31.772Z,997.11923766
2022-12-27T09:12:31.739Z,997.3224203880001
2022-12-27T09:13:31.786Z,997.11923766
2022-12-27T09:14:31.764Z,997.3224203880001
2022-12-27T09:15:31.830Z,997.220829024
2022-12-27T09:16:31.748Z,997.0176462960001
2022-12-27T09:17:31.788Z,997.220829024
2022-12-27T09:18:31.845Z,997.3224203880001
2022-12-27T09:19:31.781Z,997.0176462960001
2022-12-27T09:20:31.842Z,997.11923766
2022-12-27T09:21:31.899Z,997.220829024
2022-12-27T09:22:31.803Z,997.3224203880001
2022-12-27T09:23:31.752Z,997.11923766
2022-12-27T09:24:31.749Z,997.220829024
2022-12-27T09:25:31.805Z,997.220829024
2022-12-27T09:26:31.797Z,997.11923766
2022-12-27T09:27:31.748Z,997.0176462960001
2022-12-27T09:28:31.837Z,997.220829024
2022-12-27T09:29:31.750Z,997.3224203880001
2022-12-27T09:30:31.787Z,997.220829024
2022-12-27T09:31:31.792Z,997.220829024
2022-12-27T09:32:31.768Z,997.220829024
2022-12-27T09:33:31.745Z,997.4240117520001
2022-12-27T09:34:31.798Z,997.11923766
2022-12-27T09:35:35.381Z,997.220829024
2022-12-27T09:36:31.777Z,997.220829024
2022-12-27T09:37:31.752Z,997.220829024
2022-12-27T09:38:31.814Z,997.3224203880001
2022-12-27T09:39:31.869Z,997.3224203880001
2022-12-27T09:40:31.828Z,997.3224203880001
2022-12-27T09:42:25.985Z,997.220829024
2022-12-27T09:42:52.194Z,997.11923766
2022-12-27T09:43:31.835Z,997.220829024
2022-12-27T09:44:32.788Z,997.11923766
2022-12-27T09:45:31.739Z,997.4240117520001
2022-12-27T09:46:31.857Z,997.11923766
2022-12-27T09:47:31.791Z,997.220829024
2022-12-27T09:48:33.551Z,997.3224203880001
2022-12-27T09:49:31.778Z,997.11923766
2022-12-27T09:50:31.768Z,997.3224203880001
2022-12-27T09:51:31.727Z,997.3224203880001
2022-12-27T09:52:31.740Z,997.3224203880001
2022-12-27T09:53:31.736Z,997.3224203880001
2022-12-27T09:54:31.787Z,997.11923766
2022-12-27T09:55:31.771Z,997.525603116
2022-12-27T09:57:01.702Z,997.11923766
2022-12-27T09:57:31.795Z,997.220829024
2022-12-27T09:58:31.781Z,997.3224203880001
2022-12-27T09:59:31.774Z,997.3224203880001
2022-12-27T10:00:35.213Z,997.4240117520001
2022-12-27T10:01:31.864Z,997.11923766
2022-12-27T10:02:31.929Z,997.220829024
2022-12-27T10:03:31.756Z,997.4240117520001
2022-12-27T10:05:00.907Z,997.220829024
2022-12-27T10:05:31.833Z,997.3224203880001